createdAt,value
2023-05-19T00:01:20.379Z,9.26
2023-05-19T00:03:59.107Z,9.26
2023-05-19T00:06:29.355Z,9.24
2023-05-19T00:09:00.272Z,9.20
2023-05-19T00:11:28.496Z,9.23
2023-05-19T00:13:57.326Z,9.24
2023-05-19T00:16:26.040Z,9.27
2023-05-19T00:18:54.329Z,9.27
2023-05-19T00:21:21.223Z,9.25
2023-05-19T00:23:48.315Z,9.25
2023-05-19T00:26:15.362Z,9.22
2023-05-19T00:28:45.196Z,9.21
2023-05-19T00:31:12.062Z,9.20
2023-05-19T00:33:39.073Z,9.19
2023-05-19T00:36:06.297Z,9.21
2023-05-19T00:38:35.374Z,9.24
2023-05-19T00:41:03.764Z,9.27
2023-05-19T00:43:30.766Z,9.27
2023-05-19T00:45:58.013Z,9.24
2023-05-19T00:48:26.548Z,9.20
2023-05-19T00:50:55.176Z,9.19
2023-05-19T00:53:23.437Z,9.21
2023-05-19T00:55:51.276Z,9.24
2023-05-19T00:58:19.258Z,9.28
2023-05-19T01:00:46.449Z,9.32
2023-05-19T01:03:13.483Z,9.32
2023-05-19T01:05:42.515Z,9.31
2023-05-19T01:08:09.633Z,9.28
2023-05-19T01:10:37.258Z,9.28
2023-05-19T01:13:06.604Z,9.30
2023-05-19T01:15:41.770Z,9.33
2023-05-19T01:18:14.359Z,9.32
2023-05-19T01:20:47.450Z,9.32
2023-05-19T01:23:28.921Z,9.30
2023-05-19T01:26:04.837Z,9.29
2023-05-19T01:28:48.738Z,9.28
2023-05-19T01:31:18.909Z,9.29
2023-05-19T01:33:47.691Z,9.31
2023-05-19T01:36:15.478Z,9.31
2023-05-19T01:38:44.345Z,9.27
2023-05-19T01:41:12.514Z,9.24
2023-05-19T01:43:40.855Z,9.22
2023-05-19T01:46:08.574Z,9.22
2023-05-19T01:48:36.132Z,9.23
2023-05-19T01:51:03.107Z,9.26
2023-05-19T01:53:30.008Z,9.30
2023-05-19T01:55:57.599Z,9.31
2023-05-19T01:58:37.864Z,9.29
2023-05-19T02:01:08.163Z,9.28
2023-05-19T02:03:46.139Z,9.23
2023-05-19T02:06:28.697Z,9.21
2023-05-19T02:08:58.354Z,9.23
2023-05-19T02:11:25.207Z,9.27
2023-05-19T02:13:56.964Z,9.31
2023-05-19T02:16:28.873Z,9.33
2023-05-19T02:18:56.607Z,9.32
2023-05-19T02:21:23.573Z,9.29
2023-05-19T02:23:50.821Z,9.27
2023-05-19T02:26:19.986Z,9.27
2023-05-19T02:28:46.945Z,9.29
2023-05-19T02:31:14.059Z,9.32
2023-05-19T02:33:41.470Z,9.32
2023-05-19T02:36:10.160Z,9.33
2023-05-19T02:38:37.727Z,9.30
2023-05-19T02:41:04.585Z,9.29
2023-05-19T02:43:31.620Z,9.30
2023-05-19T02:45:58.480Z,9.32
2023-05-19T02:48:26.693Z,9.32
2023-05-19T02:50:53.624Z,9.32
2023-05-19T02:53:20.504Z,9.30
2023-05-19T02:55:47.387Z,9.24
2023-05-19T02:58:14.448Z,9.20
2023-05-19T03:00:41.394Z,9.18
2023-05-19T03:03:10.560Z,9.17
2023-05-19T03:05:37.755Z,9.18
2023-05-19T03:08:04.771Z,9.20
2023-05-19T03:10:31.792Z,9.21
2023-05-19T03:12:58.930Z,9.18
2023-05-19T03:15:25.837Z,9.16
2023-05-19T03:17:52.791Z,9.17
2023-05-19T03:20:19.946Z,9.18
2023-05-19T03:22:46.866Z,9.21
2023-05-19T03:25:13.999Z,9.22
2023-05-19T03:27:42.458Z,9.19
2023-05-19T03:30:13.786Z,9.23
2023-05-19T03:32:52.709Z,9.21
2023-05-19T03:35:19.877Z,9.23
2023-05-19T03:37:46.802Z,9.26
2023-05-19T03:40:14.308Z,9.33
2023-05-19T03:42:42.157Z,9.40
2023-05-19T03:45:09.272Z,9.46
2023-05-19T03:47:36.212Z,9.53
2023-05-19T03:50:23.443Z,9.61
2023-05-19T03:52:56.676Z,9.65
2023-05-19T03:55:31.517Z,9.64
2023-05-19T03:57:58.410Z,9.54
2023-05-19T04:00:25.331Z,9.46
2023-05-19T04:02:52.410Z,9.46
2023-05-19T04:05:19.323Z,9.51
2023-05-19T04:07:46.925Z,9.54
2023-05-19T04:10:14.367Z,9.53
2023-05-19T04:12:41.263Z,9.56
2023-05-19T04:15:11.588Z,9.66
2023-05-19T04:17:39.561Z,9.77
2023-05-19T04:20:07.053Z,9.87
2023-05-19T04:22:34.167Z,9.95
2023-05-19T04:25:01.828Z,9.91
2023-05-19T04:27:30.160Z,9.76
2023-05-19T04:29:58.244Z,9.73
2023-05-19T04:32:25.970Z,9.83
2023-05-19T04:34:53.401Z,9.95
2023-05-19T04:37:24.293Z,10.07
2023-05-19T04:39:53.666Z,10.12
2023-05-19T04:42:22.492Z,10.20
2023-05-19T04:44:51.872Z,10.22
2023-05-19T04:47:21.646Z,10.24
2023-05-19T04:49:48.865Z,10.28
2023-05-19T04:52:16.244Z,10.34
2023-05-19T04:54:43.128Z,10.42
2023-05-19T04:57:12.274Z,10.50
2023-05-19T04:59:39.763Z,10.58
2023-05-19T05:02:08.529Z,10.62
2023-05-19T05:04:36.887Z,10.52
2023-05-19T05:07:03.980Z,10.42
2023-05-19T05:09:31.085Z,10.46
2023-05-19T05:11:59.260Z,10.54
2023-05-19T05:14:26.703Z,10.65
2023-05-19T05:16:54.037Z,10.75
2023-05-19T05:19:23.802Z,10.84
2023-05-19T05:21:52.154Z,10.89
2023-05-19T05:24:20.282Z,10.84
2023-05-19T05:26:51.249Z,10.77
2023-05-19T05:29:18.268Z,10.76
2023-05-19T05:31:45.237Z,10.85
2023-05-19T05:34:12.244Z,10.94
2023-05-19T05:36:39.447Z,11.02
2023-05-19T05:39:08.295Z,11.12
2023-05-19T05:41:36.169Z,11.24
2023-05-19T05:44:08.231Z,11.35
2023-05-19T05:46:35.453Z,11.37
2023-05-19T05:49:03.393Z,11.33
2023-05-19T05:51:32.995Z,11.28
2023-05-19T05:54:01.213Z,11.33
2023-05-19T05:56:33.998Z,11.40
2023-05-19T05:59:02.209Z,11.47
2023-05-19T06:01:31.869Z,11.53
2023-05-19T06:04:00.067Z,11.58
2023-05-19T06:06:27.070Z,11.62
2023-05-19T06:08:55.101Z,11.67
2023-05-19T06:11:23.184Z,11.74
2023-05-19T06:13:51.230Z,11.80
2023-05-19T06:16:35.913Z,11.85
2023-05-19T06:19:02.876Z,11.93
2023-05-19T06:21:29.851Z,11.99
2023-05-19T06:23:56.781Z,12.02
2023-05-19T06:26:24.204Z,12.06
2023-05-19T06:28:51.509Z,12.08
2023-05-19T06:31:18.460Z,12.16
2023-05-19T06:33:50.892Z,12.20
2023-05-19T06:36:17.983Z,12.22
2023-05-19T06:38:46.969Z,12.20
2023-05-19T06:41:14.324Z,12.27
2023-05-19T06:43:42.657Z,12.14
2023-05-19T06:46:14.228Z,12.12
2023-05-19T06:48:43.683Z,12.19
2023-05-19T06:51:11.642Z,12.29
2023-05-19T06:53:39.513Z,12.38
2023-05-19T06:56:08.363Z,12.46
2023-05-19T06:58:36.253Z,12.50
2023-05-19T07:01:04.551Z,12.53
2023-05-19T07:03:35.570Z,12.56
2023-05-19T07:06:05.061Z,12.65
2023-05-19T07:08:33.444Z,12.70
2023-05-19T07:11:01.445Z,12.76
2023-05-19T07:13:28.706Z,12.85
2023-05-19T07:15:55.977Z,12.88
2023-05-19T07:18:23.439Z,12.93
2023-05-19T07:20:53.961Z,13.02
2023-05-19T07:23:21.157Z,13.10
2023-05-19T07:25:49.254Z,13.13
2023-05-19T07:28:16.324Z,13.13
2023-05-19T07:30:43.499Z,13.20
2023-05-19T07:33:10.537Z,13.27
2023-05-19T07:35:37.616Z,13.25
2023-05-19T07:38:04.666Z,13.26
2023-05-19T07:40:31.679Z,13.18
2023-05-19T07:42:58.766Z,13.11
2023-05-19T07:45:26.020Z,13.10
2023-05-19T07:47:54.097Z,13.05
2023-05-19T07:50:20.984Z,13.07
2023-05-19T07:52:47.825Z,13.08
2023-05-19T07:55:15.133Z,13.07
2023-05-19T07:57:41.936Z,13.09
2023-05-19T08:00:13.593Z,13.13
2023-05-19T08:02:41.448Z,13.16
2023-05-19T08:05:09.396Z,13.19
2023-05-19T08:07:36.949Z,13.26
2023-05-19T08:10:04.654Z,13.32
2023-05-19T08:12:31.469Z,13.45
2023-05-19T08:15:00.990Z,13.55
2023-05-19T08:17:28.490Z,13.64
2023-05-19T08:19:55.333Z,13.72
2023-05-19T08:22:22.237Z,13.78
2023-05-19T08:24:49.982Z,13.85
2023-05-19T08:27:16.955Z,13.88
2023-05-19T08:29:44.237Z,13.87
2023-05-19T08:32:13.191Z,13.90
2023-05-19T08:34:41.415Z,14.01
2023-05-19T08:37:08.336Z,14.15
2023-05-19T08:39:35.338Z,14.29
2023-05-19T08:42:02.560Z,14.39
2023-05-19T08:44:30.983Z,14.53
2023-05-19T08:47:02.939Z,14.73
2023-05-19T08:49:33.291Z,14.93
2023-05-19T08:52:14.461Z,15.08
2023-05-19T08:54:50.977Z,15.17
2023-05-19T08:57:19.394Z,15.21
2023-05-19T08:59:46.288Z,15.21
2023-05-19T09:02:14.549Z,15.20
2023-05-19T09:04:46.024Z,15.19
2023-05-19T09:07:14.627Z,15.16
2023-05-19T09:09:43.968Z,15.11
2023-05-19T09:12:11.847Z,15.08
2023-05-19T09:14:38.736Z,15.07
2023-05-19T09:17:06.576Z,15.02
2023-05-19T09:19:33.595Z,14.96
2023-05-19T09:22:03.266Z,14.88
2023-05-19T09:24:30.648Z,14.83
2023-05-19T09:26:58.527Z,14.76
2023-05-19T09:29:26.821Z,14.63
2023-05-19T09:31:56.208Z,14.57
2023-05-19T09:34:25.529Z,14.59
2023-05-19T09:36:54.092Z,14.69
2023-05-19T09:39:23.295Z,14.71
2023-05-19T09:41:53.909Z,14.71
2023-05-19T09:44:21.297Z,14.66
2023-05-19T09:46:50.709Z,14.65
2023-05-19T09:49:21.188Z,14.65
2023-05-19T09:51:50.870Z,14.82
2023-05-19T09:54:20.591Z,14.85
2023-05-19T09:56:53.290Z,14.89
2023-05-19T09:59:24.087Z,14.91
2023-05-19T10:01:55.014Z,14.95
2023-05-19T10:04:23.715Z,15.02
2023-05-19T10:06:54.505Z,15.05
2023-05-19T10:09:25.114Z,15.16
2023-05-19T10:11:54.757Z,15.20
2023-05-19T10:14:24.601Z,15.21
2023-05-19T10:16:53.204Z,15.22
2023-05-19T10:19:24.893Z,15.23
2023-05-19T10:21:52.701Z,15.22
2023-05-19T10:24:21.477Z,15.20
2023-05-19T10:26:58.672Z,15.19
2023-05-19T10:29:30.303Z,15.14
2023-05-19T10:32:01.275Z,15.07
2023-05-19T10:34:59.415Z,15.11
2023-05-19T10:37:45.681Z,15.07
2023-05-19T10:40:21.925Z,15.03
2023-05-19T10:43:07.737Z,15.05
2023-05-19T10:45:46.119Z,15.15
2023-05-19T10:48:16.036Z,15.24
2023-05-19T10:50:46.251Z,15.32
2023-05-19T10:53:18.275Z,15.35
2023-05-19T10:56:04.342Z,15.37
2023-05-19T10:58:46.601Z,15.41
2023-05-19T11:01:16.618Z,15.51
2023-05-19T11:03:54.130Z,15.72
2023-05-19T11:06:38.294Z,16.01
2023-05-19T11:09:31.125Z,16.27
2023-05-19T11:12:05.247Z,16.46
2023-05-19T11:14:32.755Z,16.57
2023-05-19T11:17:00.646Z,16.67
2023-05-19T11:19:30.074Z,16.80
2023-05-19T11:22:07.706Z,16.91
2023-05-19T11:24:36.774Z,17.05
2023-05-19T11:27:28.443Z,17.13
2023-05-19T11:29:59.273Z,17.19
2023-05-19T11:32:29.488Z,17.21
2023-05-19T11:34:57.874Z,17.31
2023-05-19T11:37:25.177Z,17.35
2023-05-19T11:39:53.332Z,17.42
2023-05-19T11:42:20.667Z,17.48
2023-05-19T11:44:48.034Z,17.56
2023-05-19T11:47:16.042Z,17.57
2023-05-19T11:49:45.990Z,17.52
2023-05-19T11:52:13.292Z,17.51
2023-05-19T11:54:42.088Z,17.54
2023-05-19T11:57:11.670Z,17.57
2023-05-19T11:59:40.730Z,17.59
2023-05-19T12:02:18.079Z,17.58
2023-05-19T12:04:45.582Z,17.54
2023-05-19T12:07:13.846Z,17.55
2023-05-19T12:09:40.683Z,17.55
2023-05-19T12:12:07.896Z,17.56
2023-05-19T12:14:35.932Z,17.60
2023-05-19T12:17:14.704Z,17.55
2023-05-19T12:19:43.762Z,17.58
2023-05-19T12:22:12.756Z,17.57
2023-05-19T12:24:40.401Z,17.55
2023-05-19T12:27:13.160Z,17.53
2023-05-19T12:29:41.488Z,17.57
2023-05-19T12:32:09.638Z,17.57
2023-05-19T12:34:38.318Z,17.49
2023-05-19T12:37:06.285Z,17.39
2023-05-19T12:39:34.035Z,17.27
2023-05-19T12:42:09.597Z,17.23
2023-05-19T12:44:46.956Z,17.28
2023-05-19T12:47:16.149Z,17.22
2023-05-19T12:49:59.825Z,17.12
2023-05-19T12:52:29.104Z,17.08
2023-05-19T12:55:06.698Z,17.10
2023-05-19T12:57:36.291Z,17.14
2023-05-19T13:00:14.167Z,17.13
2023-05-19T13:03:05.974Z,17.14
2023-05-19T13:05:38.078Z,17.08
2023-05-19T13:08:07.865Z,17.04
2023-05-19T13:10:36.504Z,17.01
2023-05-19T13:13:04.317Z,16.95
2023-05-19T13:15:34.682Z,16.91
2023-05-19T13:18:03.895Z,16.92
2023-05-19T13:20:31.408Z,16.93
2023-05-19T13:22:58.672Z,16.95
2023-05-19T13:25:26.473Z,16.95
2023-05-19T13:27:54.534Z,16.84
2023-05-19T13:30:22.085Z,16.83
2023-05-19T13:32:48.883Z,16.82
2023-05-19T13:35:16.008Z,16.83
2023-05-19T13:37:50.343Z,16.83
2023-05-19T13:40:17.723Z,16.83
2023-05-19T13:42:45.537Z,16.80
2023-05-19T13:45:12.385Z,16.68
2023-05-19T13:47:39.188Z,16.62
2023-05-19T13:50:06.666Z,16.61
2023-05-19T13:52:33.881Z,16.62
2023-05-19T13:55:00.873Z,16.63
2023-05-19T13:57:27.634Z,16.63
2023-05-19T14:00:02.409Z,16.59
2023-05-19T14:02:39.833Z,16.57
2023-05-19T14:05:07.726Z,16.58
2023-05-19T14:07:35.349Z,16.58
2023-05-19T14:10:03.926Z,16.55
2023-05-19T14:12:43.162Z,16.52
2023-05-19T14:15:17.867Z,16.44
2023-05-19T14:17:44.830Z,16.35
2023-05-19T14:20:12.148Z,16.28
2023-05-19T14:22:39.008Z,16.27
2023-05-19T14:25:06.499Z,16.25
2023-05-19T14:27:33.296Z,16.29
2023-05-19T14:30:00.230Z,16.34
2023-05-19T14:32:30.119Z,16.35
2023-05-19T14:34:57.357Z,16.37
2023-05-19T14:37:26.683Z,16.37
2023-05-19T14:39:53.750Z,16.30
2023-05-19T14:42:20.759Z,16.24
2023-05-19T14:44:47.795Z,16.18
2023-05-19T14:47:14.744Z,16.14
2023-05-19T14:49:41.696Z,16.07
2023-05-19T14:52:08.602Z,15.96
2023-05-19T14:54:35.430Z,15.93
2023-05-19T14:57:03.033Z,15.95
2023-05-19T14:59:29.937Z,15.94
2023-05-19T15:01:56.685Z,15.86
2023-05-19T15:04:23.679Z,15.82
2023-05-19T15:07:02.067Z,15.83
2023-05-19T15:09:36.540Z,15.84
2023-05-19T15:12:03.611Z,15.85
2023-05-19T15:14:31.185Z,15.82
2023-05-19T15:16:58.838Z,15.75
2023-05-19T15:19:26.508Z,15.71
2023-05-19T15:21:53.690Z,15.69
2023-05-19T15:24:20.573Z,15.63
2023-05-19T15:26:47.667Z,15.54
2023-05-19T15:29:14.603Z,15.47
2023-05-19T15:31:41.666Z,15.38
2023-05-19T15:34:08.853Z,15.29
2023-05-19T15:36:35.715Z,15.24
2023-05-19T15:39:03.925Z,15.22
2023-05-19T15:41:31.072Z,15.19
2023-05-19T15:44:00.326Z,15.19
2023-05-19T15:46:28.204Z,15.16
2023-05-19T15:48:55.392Z,15.15
2023-05-19T15:51:22.603Z,15.15
2023-05-19T15:53:49.593Z,15.17
2023-05-19T15:56:19.762Z,15.14
2023-05-19T15:58:46.604Z,15.09
2023-05-19T16:01:14.879Z,15.04
2023-05-19T16:03:41.905Z,15.02
2023-05-19T16:06:09.119Z,15.01
2023-05-19T16:08:36.549Z,15.01
2023-05-19T16:11:04.398Z,14.93
2023-05-19T16:13:33.556Z,14.87
2023-05-19T16:16:01.161Z,14.83
2023-05-19T16:18:29.571Z,14.77
2023-05-19T16:20:56.713Z,14.68
2023-05-19T16:23:24.805Z,14.63
2023-05-19T16:25:51.722Z,14.57
2023-05-19T16:28:18.544Z,14.57
2023-05-19T16:30:46.245Z,14.57
2023-05-19T16:33:13.216Z,14.55
2023-05-19T16:35:40.057Z,14.51
2023-05-19T16:38:06.849Z,14.38
2023-05-19T16:40:34.246Z,14.26
2023-05-19T16:43:01.349Z,14.19
2023-05-19T16:45:28.370Z,14.14
2023-05-19T16:47:55.515Z,14.09
2023-05-19T16:50:22.441Z,14.03
2023-05-19T16:52:49.277Z,13.93
2023-05-19T16:55:19.815Z,13.87
2023-05-19T16:57:47.289Z,13.81
2023-05-19T17:00:14.992Z,13.77
2023-05-19T17:02:42.252Z,13.74
2023-05-19T17:05:09.821Z,13.70
2023-05-19T17:07:36.690Z,13.65
2023-05-19T17:10:03.764Z,13.60
2023-05-19T17:12:30.629Z,13.55
2023-05-19T17:14:57.515Z,13.50
2023-05-19T17:17:24.321Z,13.47
2023-05-19T17:19:51.092Z,13.47
2023-05-19T17:22:17.982Z,13.46
2023-05-19T17:24:45.279Z,13.44
2023-05-19T17:27:12.084Z,13.40
2023-05-19T17:29:38.836Z,13.37
2023-05-19T17:32:05.862Z,13.36
2023-05-19T17:34:32.674Z,13.35
2023-05-19T17:36:59.543Z,13.32
2023-05-19T17:39:26.994Z,13.30
2023-05-19T17:42:01.111Z,13.29
2023-05-19T17:45:20.809Z,13.26
2023-05-19T17:47:47.853Z,13.22
2023-05-19T17:50:14.719Z,13.18
2023-05-19T17:52:42.061Z,13.17
2023-05-19T17:55:09.690Z,13.19
2023-05-19T17:57:40.247Z,13.19
2023-05-19T18:00:07.835Z,13.20
2023-05-19T18:02:35.534Z,13.17
2023-05-19T18:05:03.173Z,13.11
2023-05-19T18:07:32.740Z,13.07
2023-05-19T18:10:01.340Z,13.03
2023-05-19T18:12:28.112Z,13.00
2023-05-19T18:14:54.875Z,12.97
2023-05-19T18:17:21.940Z,12.97
2023-05-19T18:19:49.525Z,12.96
2023-05-19T18:22:17.687Z,12.93
2023-05-19T18:24:44.564Z,12.91
2023-05-19T18:27:11.366Z,12.88
2023-05-19T18:29:38.497Z,12.85
2023-05-19T18:32:06.934Z,12.83
2023-05-19T18:34:33.951Z,12.83
2023-05-19T18:37:00.795Z,12.83
2023-05-19T18:39:29.242Z,12.81
2023-05-19T18:41:56.327Z,12.79
2023-05-19T18:44:23.224Z,12.77
2023-05-19T18:46:50.041Z,12.72
2023-05-19T18:49:17.279Z,12.69
2023-05-19T18:51:44.156Z,12.69
2023-05-19T18:54:12.449Z,12.70
2023-05-19T18:56:39.361Z,12.69
2023-05-19T18:59:06.386Z,12.68
2023-05-19T19:01:33.263Z,12.66
2023-05-19T19:04:00.911Z,12.63
2023-05-19T19:06:28.128Z,12.60
2023-05-19T19:08:54.899Z,12.57
2023-05-19T19:11:37.250Z,12.54
2023-05-19T19:14:04.237Z,12.50
2023-05-19T19:16:31.205Z,12.46
2023-05-19T19:18:58.203Z,12.42
2023-05-19T19:21:25.867Z,12.41
2023-05-19T19:23:54.831Z,12.42
2023-05-19T19:26:25.116Z,12.43
2023-05-19T19:28:51.952Z,12.48
2023-05-19T19:31:18.855Z,12.52
2023-05-19T19:33:45.880Z,12.52
2023-05-19T19:36:12.776Z,12.55
2023-05-19T19:38:39.770Z,12.51
2023-05-19T19:41:06.655Z,12.49
2023-05-19T19:43:33.755Z,12.46
2023-05-19T19:46:02.696Z,12.44
2023-05-19T19:48:29.898Z,12.41
2023-05-19T19:50:58.533Z,12.37
2023-05-19T19:53:25.498Z,12.32
2023-05-19T19:55:57.812Z,12.26
2023-05-19T19:58:24.969Z,12.23
2023-05-19T20:01:00.739Z,12.23
2023-05-19T20:03:27.932Z,12.21
2023-05-19T20:05:56.689Z,12.23
2023-05-19T20:08:24.636Z,12.22
2023-05-19T20:10:51.779Z,12.22
2023-05-19T20:13:19.306Z,12.22
2023-05-19T20:15:46.874Z,12.21
2023-05-19T20:18:13.896Z,12.21
2023-05-19T20:20:41.554Z,12.22
2023-05-19T20:23:09.086Z,12.28
2023-05-19T20:25:54.435Z,12.32
2023-05-19T20:28:28.707Z,12.34
2023-05-19T20:30:55.592Z,12.32
2023-05-19T20:33:22.425Z,12.28
2023-05-19T20:35:49.238Z,12.28
2023-05-19T20:38:16.125Z,12.26
2023-05-19T20:40:42.941Z,12.24
2023-05-19T20:43:09.843Z,12.29
2023-05-19T20:45:36.793Z,12.31
2023-05-19T20:48:04.309Z,12.32
2023-05-19T20:50:32.214Z,12.26
2023-05-19T20:52:59.189Z,12.19
2023-05-19T20:55:26.078Z,12.15
2023-05-19T20:57:52.898Z,12.12
2023-05-19T21:00:19.986Z,12.10
2023-05-19T21:02:46.879Z,12.12
2023-05-19T21:05:13.821Z,12.15
2023-05-19T21:07:40.673Z,12.18
2023-05-19T21:10:10.431Z,12.19
2023-05-19T21:12:37.262Z,12.12
2023-05-19T21:15:06.022Z,12.09
2023-05-19T21:17:32.965Z,12.07
2023-05-19T21:20:00.493Z,12.09
2023-05-19T21:22:27.532Z,12.07
2023-05-19T21:24:54.760Z,12.04
2023-05-19T21:27:21.969Z,12.04
2023-05-19T21:29:53.368Z,12.02
2023-05-19T21:32:21.116Z,12.03
2023-05-19T21:34:48.065Z,12.01
2023-05-19T21:37:17.353Z,12.00
2023-05-19T21:39:44.671Z,11.97
2023-05-19T21:42:13.820Z,11.93
2023-05-19T21:44:40.870Z,11.88
2023-05-19T21:47:07.679Z,11.89
2023-05-19T21:49:34.704Z,11.89
2023-05-19T21:52:01.505Z,11.89
2023-05-19T21:54:28.323Z,11.86
2023-05-19T21:56:55.169Z,11.83
2023-05-19T21:59:24.746Z,11.80
2023-05-19T22:01:52.373Z,11.80
2023-05-19T22:04:21.260Z,11.80
2023-05-19T22:06:48.102Z,11.82
2023-05-19T22:09:14.886Z,11.80
2023-05-19T22:11:41.836Z,11.79
2023-05-19T22:14:08.725Z,11.77
2023-05-19T22:16:35.583Z,11.77
2023-05-19T22:19:02.613Z,11.79
2023-05-19T22:21:29.515Z,11.75
2023-05-19T22:23:56.279Z,11.75
2023-05-19T22:26:23.153Z,11.76
2023-05-19T22:28:50.460Z,11.79
2023-05-19T22:31:17.804Z,11.78
2023-05-19T22:33:44.733Z,11.82
2023-05-19T22:36:11.738Z,11.83
2023-05-19T22:38:38.574Z,11.83
2023-05-19T22:41:05.610Z,11.85
2023-05-19T22:43:32.506Z,11.87
2023-05-19T22:45:59.391Z,11.90
2023-05-19T22:48:26.411Z,11.90
2023-05-19T22:50:53.326Z,11.90
2023-05-19T22:53:20.150Z,11.88
2023-05-19T22:55:47.116Z,11.86
2023-05-19T22:58:13.867Z,11.85
2023-05-19T23:00:40.722Z,11.83
2023-05-19T23:03:07.707Z,11.84
2023-05-19T23:05:34.840Z,11.89
2023-05-19T23:08:02.177Z,11.93
2023-05-19T23:10:29.152Z,11.95
2023-05-19T23:12:55.919Z,11.94
2023-05-19T23:15:22.701Z,11.92
2023-05-19T23:17:49.589Z,11.87
2023-05-19T23:20:16.478Z,11.83
2023-05-19T23:22:43.265Z,11.85
2023-05-19T23:25:10.164Z,11.89
2023-05-19T23:27:36.999Z,11.90
2023-05-19T23:30:04.494Z,11.90
2023-05-19T23:32:31.398Z,11.89
2023-05-19T23:34:58.151Z,11.87
2023-05-19T23:37:24.939Z,11.86
2023-05-19T23:39:51.851Z,11.88
2023-05-19T23:42:18.644Z,11.91
2023-05-19T23:44:45.630Z,11.91
2023-05-19T23:47:12.615Z,11.89
2023-05-19T23:49:39.380Z,11.91
2023-05-19T23:52:06.708Z,11.90
2023-05-19T23:54:33.510Z,11.91
2023-05-19T23:57:02.189Z,11.90
2023-05-19T23:59:28.975Z,11.93
